sensor_id;sensor_type;location;lat;lon;timestamp;P1;durP1;ratioP1;P2;durP2;ratioP2
64936;SDS011;51452;47.698;19.050;2022-09-29T00:00:23;6.68;;;4.25;;
64936;SDS011;51452;47.698;19.050;2022-09-29T00:02:49;8.65;;;4.80;;
64936;SDS011;51452;47.698;19.050;2022-09-29T00:05:14;7.65;;;4.95;;
64936;SDS011;51452;47.698;19.050;2022-09-29T00:07:39;8.20;;;4.88;;
64936;SDS011;51452;47.698;19.050;2022-09-29T00:10:05;6.22;;;4.13;;
64936;SDS011;51452;47.698;19.050;2022-09-29T00:12:30;7.35;;;4.78;;
64936;SDS011;51452;47.698;19.050;2022-09-29T00:14:55;8.05;;;4.32;;
64936;SDS011;51452;47.698;19.050;2022-09-29T00:17:21;8.43;;;4.82;;
64936;SDS011;51452;47.698;19.050;2022-09-29T00:19:46;8.02;;;4.80;;
64936;SDS011;51452;47.698;19.050;2022-09-29T00:22:12;7.65;;;4.70;;
64936;SDS011;51452;47.698;19.050;2022-09-29T00:24:37;9.38;;;5.15;;
64936;SDS011;51452;47.698;19.050;2022-09-29T00:27:03;8.13;;;4.90;;
64936;SDS011;51452;47.698;19.050;2022-09-29T00:29:28;9.63;;;5.30;;
64936;SDS011;51452;47.698;19.050;2022-09-29T00:31:54;9.45;;;5.45;;
64936;SDS011;51452;47.698;19.050;2022-09-29T00:34:19;12.13;;;5.75;;
64936;SDS011;51452;47.698;19.050;2022-09-29T00:36:44;9.43;;;5.65;;
64936;SDS011;51452;47.698;19.050;2022-09-29T00:39:10;13.10;;;5.05;;
64936;SDS011;51452;47.698;19.050;2022-09-29T00:41:36;9.48;;;4.85;;
64936;SDS011;51452;47.698;19.050;2022-09-29T00:52:07;9.63;;;5.30;;
64936;SDS011;51452;47.698;19.050;2022-09-29T00:54:45;10.68;;;5.75;;
64936;SDS011;51452;47.698;19.050;2022-09-29T00:57:18;8.88;;;5.13;;
64936;SDS011;51452;47.698;19.050;2022-09-29T00:59:47;11.27;;;6.60;;
64936;SDS011;51452;47.698;19.050;2022-09-29T01:02:17;10.40;;;5.80;;
64936;SDS011;51452;47.698;19.050;2022-09-29T01:04:44;13.18;;;6.03;;
64936;SDS011;51452;47.698;19.050;2022-09-29T01:07:11;9.82;;;5.63;;
64936;SDS011;51452;47.698;19.050;2022-09-29T01:09:37;10.07;;;5.82;;
64936;SDS011;51452;47.698;19.050;2022-09-29T01:12:05;10.82;;;5.78;;
64936;SDS011;51452;47.698;19.050;2022-09-29T01:14:31;9.43;;;5.25;;
64936;SDS011;51452;47.698;19.050;2022-09-29T01:16:59;11.00;;;6.40;;
64936;SDS011;51452;47.698;19.050;2022-09-29T01:36:02;8.68;;;5.70;;
64936;SDS011;51452;47.698;19.050;2022-09-29T01:43:52;11.13;;;5.93;;
64936;SDS011;51452;47.698;19.050;2022-09-29T01:46:46;9.48;;;6.03;;
64936;SDS011;51452;47.698;19.050;2022-09-29T01:49:16;8.02;;;5.35;;
64936;SDS011;51452;47.698;19.050;2022-09-29T01:54:17;9.32;;;5.63;;
64936;SDS011;51452;47.698;19.050;2022-09-29T01:56:47;8.27;;;5.10;;
64936;SDS011;51452;47.698;19.050;2022-09-29T01:59:25;9.40;;;6.00;;
64936;SDS011;51452;47.698;19.050;2022-09-29T02:01:57;8.88;;;5.68;;
64936;SDS011;51452;47.698;19.050;2022-09-29T02:04:33;9.35;;;6.28;;
64936;SDS011;51452;47.698;19.050;2022-09-29T02:07:04;9.48;;;6.18;;
64936;SDS011;51452;47.698;19.050;2022-09-29T02:09:37;9.30;;;5.35;;
64936;SDS011;51452;47.698;19.050;2022-09-29T02:12:06;11.15;;;6.18;;
64936;SDS011;51452;47.698;19.050;2022-09-29T02:14:38;10.98;;;6.40;;
64936;SDS011;51452;47.698;19.050;2022-09-29T02:17:11;10.90;;;6.20;;
64936;SDS011;51452;47.698;19.050;2022-09-29T02:19:43;9.60;;;5.95;;
64936;SDS011;51452;47.698;19.050;2022-09-29T02:22:11;9.88;;;6.35;;
64936;SDS011;51452;47.698;19.050;2022-09-29T02:24:38;9.32;;;6.20;;
64936;SDS011;51452;47.698;19.050;2022-09-29T02:27:04;9.68;;;5.82;;
64936;SDS011;51452;47.698;19.050;2022-09-29T02:29:31;12.65;;;6.47;;
64936;SDS011;51452;47.698;19.050;2022-09-29T02:31:58;12.57;;;6.63;;
64936;SDS011;51452;47.698;19.050;2022-09-29T02:34:26;9.02;;;6.07;;
64936;SDS011;51452;47.698;19.050;2022-09-29T02:53:29;12.20;;;6.38;;
64936;SDS011;51452;47.698;19.050;2022-09-29T02:59:02;9.15;;;6.40;;
64936;SDS011;51452;47.698;19.050;2022-09-29T03:01:32;11.70;;;5.80;;
64936;SDS011;51452;47.698;19.050;2022-09-29T03:03:58;9.65;;;6.43;;
64936;SDS011;51452;47.698;19.050;2022-09-29T03:06:24;11.40;;;6.82;;
64936;SDS011;51452;47.698;19.050;2022-09-29T03:08:50;12.27;;;6.55;;
64936;SDS011;51452;47.698;19.050;2022-09-29T03:11:15;11.23;;;6.30;;
64936;SDS011;51452;47.698;19.050;2022-09-29T03:13:40;11.30;;;6.40;;
64936;SDS011;51452;47.698;19.050;2022-09-29T03:16:06;10.85;;;6.63;;
64936;SDS011;51452;47.698;19.050;2022-09-29T03:18:31;11.35;;;6.55;;
64936;SDS011;51452;47.698;19.050;2022-09-29T03:20:57;14.38;;;6.97;;
64936;SDS011;51452;47.698;19.050;2022-09-29T03:23:22;12.05;;;7.13;;
64936;SDS011;51452;47.698;19.050;2022-09-29T03:25:47;9.75;;;6.55;;
64936;SDS011;51452;47.698;19.050;2022-09-29T03:28:13;15.27;;;6.63;;
64936;SDS011;51452;47.698;19.050;2022-09-29T03:30:40;12.27;;;7.10;;
64936;SDS011;51452;47.698;19.050;2022-09-29T03:33:05;15.68;;;6.90;;
64936;SDS011;51452;47.698;19.050;2022-09-29T03:35:31;11.18;;;6.95;;
64936;SDS011;51452;47.698;19.050;2022-09-29T03:37:57;10.98;;;6.93;;
64936;SDS011;51452;47.698;19.050;2022-09-29T03:40:23;12.13;;;6.97;;
64936;SDS011;51452;47.698;19.050;2022-09-29T03:42:49;9.52;;;6.57;;
64936;SDS011;51452;47.698;19.050;2022-09-29T03:45:14;10.25;;;6.72;;
64936;SDS011;51452;47.698;19.050;2022-09-29T03:47:39;12.25;;;7.15;;
64936;SDS011;51452;47.698;19.050;2022-09-29T03:50:05;9.45;;;6.57;;
64936;SDS011;51452;47.698;19.050;2022-09-29T03:52:30;11.88;;;7.00;;
64936;SDS011;51452;47.698;19.050;2022-09-29T03:54:56;11.82;;;7.20;;
64936;SDS011;51452;47.698;19.050;2022-09-29T03:57:21;13.85;;;7.28;;
64936;SDS011;51452;47.698;19.050;2022-09-29T03:59:46;9.77;;;7.15;;
64936;SDS011;51452;47.698;19.050;2022-09-29T04:02:12;10.25;;;7.32;;
64936;SDS011;51452;47.698;19.050;2022-09-29T04:04:38;12.68;;;7.60;;
64936;SDS011;51452;47.698;19.050;2022-09-29T04:07:03;10.07;;;7.47;;
64936;SDS011;51452;47.698;19.050;2022-09-29T04:09:28;9.60;;;7.55;;
64936;SDS011;51452;47.698;19.050;2022-09-29T04:11:55;10.85;;;7.57;;
64936;SDS011;51452;47.698;19.050;2022-09-29T04:14:20;14.30;;;8.20;;
64936;SDS011;51452;47.698;19.050;2022-09-29T04:16:45;11.77;;;8.50;;
64936;SDS011;51452;47.698;19.050;2022-09-29T04:19:10;10.90;;;7.72;;
64936;SDS011;51452;47.698;19.050;2022-09-29T04:21:36;10.40;;;7.18;;
64936;SDS011;51452;47.698;19.050;2022-09-29T04:24:01;10.80;;;7.45;;
64936;SDS011;51452;47.698;19.050;2022-09-29T04:26:26;11.05;;;7.82;;
64936;SDS011;51452;47.698;19.050;2022-09-29T04:28:52;11.07;;;7.72;;
64936;SDS011;51452;47.698;19.050;2022-09-29T04:31:17;11.25;;;7.63;;
64936;SDS011;51452;47.698;19.050;2022-09-29T04:33:42;9.93;;;7.50;;
64936;SDS011;51452;47.698;19.050;2022-09-29T04:36:08;11.55;;;7.88;;
64936;SDS011;51452;47.698;19.050;2022-09-29T04:38:33;12.57;;;8.30;;
64936;SDS011;51452;47.698;19.050;2022-09-29T04:40:59;13.18;;;8.43;;
64936;SDS011;51452;47.698;19.050;2022-09-29T04:43:24;14.07;;;9.10;;
64936;SDS011;51452;47.698;19.050;2022-09-29T04:45:50;13.25;;;8.90;;
64936;SDS011;51452;47.698;19.050;2022-09-29T04:48:15;12.60;;;9.23;;
64936;SDS011;51452;47.698;19.050;2022-09-29T04:50:41;25.67;;;15.60;;
64936;SDS011;51452;47.698;19.050;2022-09-29T04:53:07;22.30;;;12.73;;
64936;SDS011;51452;47.698;19.050;2022-09-29T04:55:35;17.30;;;10.05;;
64936;SDS011;51452;47.698;19.050;2022-09-29T04:57:59;18.17;;;12.63;;
64936;SDS011;51452;47.698;19.050;2022-09-29T05:00:25;16.02;;;11.38;;
64936;SDS011;51452;47.698;19.050;2022-09-29T05:02:50;15.65;;;10.18;;
64936;SDS011;51452;47.698;19.050;2022-09-29T05:05:16;35.78;;;9.18;;
64936;SDS011;51452;47.698;19.050;2022-09-29T05:07:41;13.40;;;8.77;;
64936;SDS011;51452;47.698;19.050;2022-09-29T05:10:08;15.00;;;9.20;;
64936;SDS011;51452;47.698;19.050;2022-09-29T05:12:34;12.23;;;8.10;;
64936;SDS011;51452;47.698;19.050;2022-09-29T05:14:59;11.80;;;8.32;;
64936;SDS011;51452;47.698;19.050;2022-09-29T05:17:25;12.25;;;8.02;;
64936;SDS011;51452;47.698;19.050;2022-09-29T05:19:50;13.15;;;8.07;;
64936;SDS011;51452;47.698;19.050;2022-09-29T05:22:17;11.45;;;8.48;;
64936;SDS011;51452;47.698;19.050;2022-09-29T05:24:48;13.85;;;7.97;;
64936;SDS011;51452;47.698;19.050;2022-09-29T05:27:14;9.20;;;7.65;;
64936;SDS011;51452;47.698;19.050;2022-09-29T05:29:39;10.60;;;7.15;;
64936;SDS011;51452;47.698;19.050;2022-09-29T05:32:05;8.60;;;6.88;;
64936;SDS011;51452;47.698;19.050;2022-09-29T05:34:30;10.05;;;7.72;;
64936;SDS011;51452;47.698;19.050;2022-09-29T05:36:55;10.63;;;7.50;;
64936;SDS011;51452;47.698;19.050;2022-09-29T05:39:21;11.90;;;7.95;;
64936;SDS011;51452;47.698;19.050;2022-09-29T05:41:46;10.82;;;7.18;;
64936;SDS011;51452;47.698;19.050;2022-09-29T05:44:12;12.30;;;7.63;;
64936;SDS011;51452;47.698;19.050;2022-09-29T05:46:37;12.23;;;8.40;;
64936;SDS011;51452;47.698;19.050;2022-09-29T05:49:03;12.18;;;8.43;;
64936;SDS011;51452;47.698;19.050;2022-09-29T05:51:28;13.15;;;8.32;;
64936;SDS011;51452;47.698;19.050;2022-09-29T05:53:54;10.10;;;7.15;;
64936;SDS011;51452;47.698;19.050;2022-09-29T05:56:25;9.57;;;7.10;;
64936;SDS011;51452;47.698;19.050;2022-09-29T05:58:51;9.80;;;7.15;;
64936;SDS011;51452;47.698;19.050;2022-09-29T06:01:21;9.63;;;6.60;;
64936;SDS011;51452;47.698;19.050;2022-09-29T06:03:48;8.20;;;5.97;;
64936;SDS011;51452;47.698;19.050;2022-09-29T06:06:16;8.27;;;5.78;;
64936;SDS011;51452;47.698;19.050;2022-09-29T06:08:43;8.10;;;5.70;;
64936;SDS011;51452;47.698;19.050;2022-09-29T06:11:11;6.80;;;4.93;;
64936;SDS011;51452;47.698;19.050;2022-09-29T06:13:44;9.30;;;5.25;;
64936;SDS011;51452;47.698;19.050;2022-09-29T06:16:11;6.32;;;4.65;;
64936;SDS011;51452;47.698;19.050;2022-09-29T06:18:37;6.68;;;4.55;;
64936;SDS011;51452;47.698;19.050;2022-09-29T06:21:04;7.38;;;4.85;;
64936;SDS011;51452;47.698;19.050;2022-09-29T06:23:39;7.60;;;5.63;;
64936;SDS011;51452;47.698;19.050;2022-09-29T06:26:10;9.23;;;6.47;;
64936;SDS011;51452;47.698;19.050;2022-09-29T06:28:37;9.20;;;6.72;;
64936;SDS011;51452;47.698;19.050;2022-09-29T06:31:04;10.45;;;7.18;;
64936;SDS011;51452;47.698;19.050;2022-09-29T06:33:31;13.73;;;6.65;;
64936;SDS011;51452;47.698;19.050;2022-09-29T06:35:58;10.02;;;6.95;;
64936;SDS011;51452;47.698;19.050;2022-09-29T06:38:46;8.35;;;6.10;;
64936;SDS011;51452;47.698;19.050;2022-09-29T06:41:12;9.68;;;6.72;;
64936;SDS011;51452;47.698;19.050;2022-09-29T06:43:37;11.85;;;7.78;;
64936;SDS011;51452;47.698;19.050;2022-09-29T06:46:02;10.98;;;7.70;;
64936;SDS011;51452;47.698;19.050;2022-09-29T06:48:28;11.50;;;7.60;;
64936;SDS011;51452;47.698;19.050;2022-09-29T06:50:53;10.20;;;7.30;;
64936;SDS011;51452;47.698;19.050;2022-09-29T06:53:19;12.32;;;7.95;;
64936;SDS011;51452;47.698;19.050;2022-09-29T06:55:54;12.55;;;8.48;;
64936;SDS011;51452;47.698;19.050;2022-09-29T06:58:21;10.35;;;7.22;;
64936;SDS011;51452;47.698;19.050;2022-09-29T07:00:47;44.00;;;10.63;;
64936;SDS011;51452;47.698;19.050;2022-09-29T07:03:12;14.35;;;9.07;;
64936;SDS011;51452;47.698;19.050;2022-09-29T07:05:38;23.25;;;9.85;;
64936;SDS011;51452;47.698;19.050;2022-09-29T07:08:04;19.05;;;10.18;;
64936;SDS011;51452;47.698;19.050;2022-09-29T07:10:29;18.50;;;11.68;;
64936;SDS011;51452;47.698;19.050;2022-09-29T07:12:55;14.77;;;9.45;;
64936;SDS011;51452;47.698;19.050;2022-09-29T07:15:20;20.02;;;11.93;;
64936;SDS011;51452;47.698;19.050;2022-09-29T07:17:49;19.45;;;11.45;;
64936;SDS011;51452;47.698;19.050;2022-09-29T07:20:15;17.60;;;10.13;;
64936;SDS011;51452;47.698;19.050;2022-09-29T07:22:40;19.60;;;10.77;;
64936;SDS011;51452;47.698;19.050;2022-09-29T07:25:06;13.63;;;8.52;;
64936;SDS011;51452;47.698;19.050;2022-09-29T07:27:31;12.85;;;8.10;;
64936;SDS011;51452;47.698;19.050;2022-09-29T07:29:58;13.05;;;7.75;;
64936;SDS011;51452;47.698;19.050;2022-09-29T07:32:23;11.95;;;8.18;;
64936;SDS011;51452;47.698;19.050;2022-09-29T07:34:50;12.38;;;8.35;;
64936;SDS011;51452;47.698;19.050;2022-09-29T07:37:16;13.48;;;7.95;;
64936;SDS011;51452;47.698;19.050;2022-09-29T07:39:41;10.63;;;7.35;;
64936;SDS011;51452;47.698;19.050;2022-09-29T07:42:06;10.82;;;7.47;;
64936;SDS011;51452;47.698;19.050;2022-09-29T07:44:32;10.48;;;7.35;;
64936;SDS011;51452;47.698;19.050;2022-09-29T07:46:57;10.77;;;7.00;;
64936;SDS011;51452;47.698;19.050;2022-09-29T07:49:22;8.57;;;6.43;;
64936;SDS011;51452;47.698;19.050;2022-09-29T07:51:48;7.25;;;4.95;;
64936;SDS011;51452;47.698;19.050;2022-09-29T07:54:16;6.03;;;4.15;;
64936;SDS011;51452;47.698;19.050;2022-09-29T07:56:42;5.15;;;3.72;;
64936;SDS011;51452;47.698;19.050;2022-09-29T07:59:09;6.35;;;4.20;;
64936;SDS011;51452;47.698;19.050;2022-09-29T08:01:35;5.47;;;4.10;;
64936;SDS011;51452;47.698;19.050;2022-09-29T08:04:07;5.95;;;4.00;;
64936;SDS011;51452;47.698;19.050;2022-09-29T08:06:36;7.40;;;4.13;;
64936;SDS011;51452;47.698;19.050;2022-09-29T08:09:04;6.57;;;4.20;;
64936;SDS011;51452;47.698;19.050;2022-09-29T08:11:37;5.70;;;4.18;;
64936;SDS011;51452;47.698;19.050;2022-09-29T08:14:11;9.10;;;5.38;;
64936;SDS011;51452;47.698;19.050;2022-09-29T08:16:43;6.43;;;4.60;;
64936;SDS011;51452;47.698;19.050;2022-09-29T08:19:17;6.57;;;4.95;;
64936;SDS011;51452;47.698;19.050;2022-09-29T08:22:03;7.97;;;5.82;;
64936;SDS011;51452;47.698;19.050;2022-09-29T08:24:30;10.02;;;6.68;;
64936;SDS011;51452;47.698;19.050;2022-09-29T08:26:56;10.18;;;7.63;;
64936;SDS011;51452;47.698;19.050;2022-09-29T08:29:33;11.90;;;7.78;;
64936;SDS011;51452;47.698;19.050;2022-09-29T08:32:03;10.88;;;7.93;;
64936;SDS011;51452;47.698;19.050;2022-09-29T08:34:29;11.73;;;8.40;;
64936;SDS011;51452;47.698;19.050;2022-09-29T08:37:02;11.00;;;7.35;;
64936;SDS011;51452;47.698;19.050;2022-09-29T08:39:27;10.77;;;7.85;;
64936;SDS011;51452;47.698;19.050;2022-09-29T08:45:04;8.40;;;5.82;;
64936;SDS011;51452;47.698;19.050;2022-09-29T08:47:34;7.05;;;4.97;;
64936;SDS011;51452;47.698;19.050;2022-09-29T08:50:43;5.82;;;4.80;;
64936;SDS011;51452;47.698;19.050;2022-09-29T08:53:15;9.07;;;6.43;;
64936;SDS011;51452;47.698;19.050;2022-09-29T08:55:47;11.73;;;6.55;;
64936;SDS011;51452;47.698;19.050;2022-09-29T08:58:17;9.48;;;6.18;;
64936;SDS011;51452;47.698;19.050;2022-09-29T09:15:40;8.85;;;6.97;;
64936;SDS011;51452;47.698;19.050;2022-09-29T09:18:40;8.15;;;6.20;;
64936;SDS011;51452;47.698;19.050;2022-09-29T09:22:21;7.95;;;5.38;;
64936;SDS011;51452;47.698;19.050;2022-09-29T09:24:46;5.32;;;3.72;;
64936;SDS011;51452;47.698;19.050;2022-09-29T09:27:20;4.80;;;3.85;;
64936;SDS011;51452;47.698;19.050;2022-09-29T09:30:57;4.30;;;3.25;;
64936;SDS011;51452;47.698;19.050;2022-09-29T09:32:55;3.85;;;3.05;;
64936;SDS011;51452;47.698;19.050;2022-09-29T09:35:27;4.95;;;3.78;;
64936;SDS011;51452;47.698;19.050;2022-09-29T09:38:03;5.05;;;3.88;;
64936;SDS011;51452;47.698;19.050;2022-09-29T09:40:42;5.28;;;4.05;;
64936;SDS011;51452;47.698;19.050;2022-09-29T09:45:54;3.30;;;2.67;;
64936;SDS011;51452;47.698;19.050;2022-09-29T09:48:39;2.88;;;2.10;;
64936;SDS011;51452;47.698;19.050;2022-09-29T09:54:11;2.47;;;1.60;;
64936;SDS011;51452;47.698;19.050;2022-09-29T10:02:33;2.85;;;2.30;;
64936;SDS011;51452;47.698;19.050;2022-09-29T10:04:59;4.82;;;2.72;;
64936;SDS011;51452;47.698;19.050;2022-09-29T10:07:27;3.60;;;2.92;;
64936;SDS011;51452;47.698;19.050;2022-09-29T10:09:55;3.58;;;2.60;;
64936;SDS011;51452;47.698;19.050;2022-09-29T10:12:27;2.63;;;1.75;;
64936;SDS011;51452;47.698;19.050;2022-09-29T10:14:53;1.13;;;1.00;;
64936;SDS011;51452;47.698;19.050;2022-09-29T10:17:24;1.60;;;1.00;;
64936;SDS011;51452;47.698;19.050;2022-09-29T10:22:25;1.15;;;0.85;;
64936;SDS011;51452;47.698;19.050;2022-09-29T10:24:52;1.42;;;0.85;;
64936;SDS011;51452;47.698;19.050;2022-09-29T10:27:29;2.28;;;1.60;;
64936;SDS011;51452;47.698;19.050;2022-09-29T10:29:55;5.22;;;1.40;;
64936;SDS011;51452;47.698;19.050;2022-09-29T10:32:26;1.73;;;1.40;;
64936;SDS011;51452;47.698;19.050;2022-09-29T10:35:22;2.60;;;2.00;;
64936;SDS011;51452;47.698;19.050;2022-09-29T10:38:05;2.58;;;1.70;;
64936;SDS011;51452;47.698;19.050;2022-09-29T10:43:38;2.50;;;1.80;;
64936;SDS011;51452;47.698;19.050;2022-09-29T10:46:31;4.20;;;2.03;;
64936;SDS011;51452;47.698;19.050;2022-09-29T10:49:11;2.92;;;2.28;;
64936;SDS011;51452;47.698;19.050;2022-09-29T10:51:40;6.45;;;2.50;;
64936;SDS011;51452;47.698;19.050;2022-09-29T10:54:13;2.83;;;2.40;;
64936;SDS011;51452;47.698;19.050;2022-09-29T10:56:44;4.60;;;2.30;;
64936;SDS011;51452;47.698;19.050;2022-09-29T10:59:12;5.05;;;2.40;;
64936;SDS011;51452;47.698;19.050;2022-09-29T11:01:43;3.67;;;1.90;;
64936;SDS011;51452;47.698;19.050;2022-09-29T11:04:32;2.45;;;1.80;;
64936;SDS011;51452;47.698;19.050;2022-09-29T11:07:04;2.45;;;1.83;;
64936;SDS011;51452;47.698;19.050;2022-09-29T11:09:35;2.60;;;1.90;;
64936;SDS011;51452;47.698;19.050;2022-09-29T11:12:03;3.83;;;1.73;;
64936;SDS011;51452;47.698;19.050;2022-09-29T11:16:58;2.55;;;1.60;;
64936;SDS011;51452;47.698;19.050;2022-09-29T11:19:25;2.25;;;1.50;;
64936;SDS011;51452;47.698;19.050;2022-09-29T11:21:59;1.90;;;1.38;;
64936;SDS011;51452;47.698;19.050;2022-09-29T11:27:52;1.70;;;1.17;;
64936;SDS011;51452;47.698;19.050;2022-09-29T11:30:22;2.03;;;1.10;;
64936;SDS011;51452;47.698;19.050;2022-09-29T11:35:58;1.58;;;1.25;;
64936;SDS011;51452;47.698;19.050;2022-09-29T11:41:31;2.45;;;1.10;;
64936;SDS011;51452;47.698;19.050;2022-09-29T11:44:03;2.30;;;1.20;;
64936;SDS011;51452;47.698;19.050;2022-09-29T11:49:49;1.50;;;1.10;;
64936;SDS011;51452;47.698;19.050;2022-09-29T12:03:20;1.40;;;0.65;;
64936;SDS011;51452;47.698;19.050;2022-09-29T12:08:50;1.00;;;0.70;;
64936;SDS011;51452;47.698;19.050;2022-09-29T12:14:18;4.63;;;0.70;;
64936;SDS011;51452;47.698;19.050;2022-09-29T12:16:51;1.00;;;0.70;;
64936;SDS011;51452;47.698;19.050;2022-09-29T12:19:22;2.22;;;0.60;;
64936;SDS011;51452;47.698;19.050;2022-09-29T12:21:51;2.47;;;0.80;;
64936;SDS011;51452;47.698;19.050;2022-09-29T12:24:19;0.93;;;0.75;;
64936;SDS011;51452;47.698;19.050;2022-09-29T12:27:05;3.05;;;0.73;;
64936;SDS011;51452;47.698;19.050;2022-09-29T12:29:37;3.50;;;0.70;;
64936;SDS011;51452;47.698;19.050;2022-09-29T12:32:31;1.40;;;0.73;;
64936;SDS011;51452;47.698;19.050;2022-09-29T12:35:03;2.20;;;0.93;;
64936;SDS011;51452;47.698;19.050;2022-09-29T12:37:43;1.17;;;0.80;;
64936;SDS011;51452;47.698;19.050;2022-09-29T12:43:30;1.35;;;0.80;;
64936;SDS011;51452;47.698;19.050;2022-09-29T12:51:47;2.25;;;0.60;;
64936;SDS011;51452;47.698;19.050;2022-09-29T12:57:04;2.55;;;0.75;;
64936;SDS011;51452;47.698;19.050;2022-09-29T13:02:04;1.63;;;0.70;;
64936;SDS011;51452;47.698;19.050;2022-09-29T13:04:51;1.38;;;0.80;;
64936;SDS011;51452;47.698;19.050;2022-09-29T13:15:33;1.45;;;0.60;;
64936;SDS011;51452;47.698;19.050;2022-09-29T13:18:20;1.00;;;0.65;;
64936;SDS011;51452;47.698;19.050;2022-09-29T13:21:58;4.38;;;2.30;;
64936;SDS011;51452;47.698;19.050;2022-09-29T13:30:00;0.65;;;0.55;;
64936;SDS011;51452;47.698;19.050;2022-09-29T13:32:42;1.60;;;0.68;;
64936;SDS011;51452;47.698;19.050;2022-09-29T13:35:15;1.80;;;0.70;;
64936;SDS011;51452;47.698;19.050;2022-09-29T13:37:47;1.33;;;0.68;;
64936;SDS011;51452;47.698;19.050;2022-09-29T13:40:21;2.88;;;0.70;;
64936;SDS011;51452;47.698;19.050;2022-09-29T13:42:49;0.90;;;0.60;;
64936;SDS011;51452;47.698;19.050;2022-09-29T13:47:46;3.17;;;1.10;;
64936;SDS011;51452;47.698;19.050;2022-09-29T13:50:59;2.60;;;1.60;;
64936;SDS011;51452;47.698;19.050;2022-09-29T13:55:55;2.83;;;1.08;;
64936;SDS011;51452;47.698;19.050;2022-09-29T13:58:35;1.92;;;1.20;;
64936;SDS011;51452;47.698;19.050;2022-09-29T14:01:05;1.63;;;1.10;;
64936;SDS011;51452;47.698;19.050;2022-09-29T14:03:33;1.27;;;1.00;;
64936;SDS011;51452;47.698;19.050;2022-09-29T14:08:48;1.60;;;0.90;;
64936;SDS011;51452;47.698;19.050;2022-09-29T14:11:39;1.23;;;0.90;;
64936;SDS011;51452;47.698;19.050;2022-09-29T14:14:14;1.83;;;1.05;;
64936;SDS011;51452;47.698;19.050;2022-09-29T14:29:57;2.45;;;0.95;;
64936;SDS011;51452;47.698;19.050;2022-09-29T14:35:24;3.17;;;1.13;;
64936;SDS011;51452;47.698;19.050;2022-09-29T14:38:04;1.67;;;1.27;;
64936;SDS011;51452;47.698;19.050;2022-09-29T14:40:30;3.05;;;0.95;;
64936;SDS011;51452;47.698;19.050;2022-09-29T14:43:15;2.88;;;1.17;;
64936;SDS011;51452;47.698;19.050;2022-09-29T14:51:54;1.38;;;0.90;;
64936;SDS011;51452;47.698;19.050;2022-09-29T14:57:40;1.05;;;0.68;;
64936;SDS011;51452;47.698;19.050;2022-09-29T15:00:13;0.80;;;0.55;;
64936;SDS011;51452;47.698;19.050;2022-09-29T15:02:50;1.85;;;0.80;;
64936;SDS011;51452;47.698;19.050;2022-09-29T15:07:51;2.80;;;0.70;;
64936;SDS011;51452;47.698;19.050;2022-09-29T15:16:12;7.63;;;1.27;;
64936;SDS011;51452;47.698;19.050;2022-09-29T15:21:44;1.85;;;1.00;;
64936;SDS011;51452;47.698;19.050;2022-09-29T15:27:04;1.65;;;0.95;;
64936;SDS011;51452;47.698;19.050;2022-09-29T15:29:36;2.85;;;0.90;;
64936;SDS011;51452;47.698;19.050;2022-09-29T15:32:01;2.83;;;0.93;;
64936;SDS011;51452;47.698;19.050;2022-09-29T15:34:27;2.78;;;1.33;;
64936;SDS011;51452;47.698;19.050;2022-09-29T15:36:53;2.25;;;1.00;;
64936;SDS011;51452;47.698;19.050;2022-09-29T15:42:14;2.50;;;1.05;;
64936;SDS011;51452;47.698;19.050;2022-09-29T15:44:46;3.92;;;1.60;;
64936;SDS011;51452;47.698;19.050;2022-09-29T15:47:19;4.60;;;3.22;;
64936;SDS011;51452;47.698;19.050;2022-09-29T15:49:53;4.57;;;2.28;;
64936;SDS011;51452;47.698;19.050;2022-09-29T15:52:19;3.25;;;1.20;;
64936;SDS011;51452;47.698;19.050;2022-09-29T15:55:13;6.93;;;1.85;;
64936;SDS011;51452;47.698;19.050;2022-09-29T15:57:44;1.70;;;0.90;;
64936;SDS011;51452;47.698;19.050;2022-09-29T16:00:40;1.42;;;1.00;;
64936;SDS011;51452;47.698;19.050;2022-09-29T16:03:24;2.97;;;1.10;;
64936;SDS011;51452;47.698;19.050;2022-09-29T16:06:37;3.15;;;1.75;;
64936;SDS011;51452;47.698;19.050;2022-09-29T16:09:16;2.28;;;1.52;;
64936;SDS011;51452;47.698;19.050;2022-09-29T16:12:06;2.80;;;1.23;;
64936;SDS011;51452;47.698;19.050;2022-09-29T16:14:41;2.75;;;1.20;;
64936;SDS011;51452;47.698;19.050;2022-09-29T16:17:18;8.52;;;2.47;;
64936;SDS011;51452;47.698;19.050;2022-09-29T16:19:44;1.73;;;1.00;;
64936;SDS011;51452;47.698;19.050;2022-09-29T16:28:31;4.95;;;2.20;;
64936;SDS011;51452;47.698;19.050;2022-09-29T16:30:59;2.42;;;1.50;;
64936;SDS011;51452;47.698;19.050;2022-09-29T16:33:27;4.28;;;1.27;;
64936;SDS011;51452;47.698;19.050;2022-09-29T16:40:45;2.20;;;1.40;;
64936;SDS011;51452;47.698;19.050;2022-09-29T16:43:24;7.72;;;2.42;;
64936;SDS011;51452;47.698;19.050;2022-09-29T16:45:55;3.65;;;1.60;;
64936;SDS011;51452;47.698;19.050;2022-09-29T16:48:24;7.53;;;2.20;;
64936;SDS011;51452;47.698;19.050;2022-09-29T16:50:57;2.88;;;1.50;;
64936;SDS011;51452;47.698;19.050;2022-09-29T16:53:49;5.70;;;2.17;;
64936;SDS011;51452;47.698;19.050;2022-09-29T16:56:44;2.45;;;1.30;;
64936;SDS011;51452;47.698;19.050;2022-09-29T16:59:13;3.00;;;1.40;;
64936;SDS011;51452;47.698;19.050;2022-09-29T17:01:40;4.15;;;1.15;;
64936;SDS011;51452;47.698;19.050;2022-09-29T17:04:07;2.97;;;1.20;;
64936;SDS011;51452;47.698;19.050;2022-09-29T17:06:34;1.75;;;1.02;;
64936;SDS011;51452;47.698;19.050;2022-09-29T17:08:59;4.30;;;1.30;;
64936;SDS011;51452;47.698;19.050;2022-09-29T17:11:26;2.65;;;1.10;;
64936;SDS011;51452;47.698;19.050;2022-09-29T17:13:53;3.20;;;1.40;;
64936;SDS011;51452;47.698;19.050;2022-09-29T17:16:20;2.08;;;1.08;;
64936;SDS011;51452;47.698;19.050;2022-09-29T17:18:49;3.38;;;1.15;;
64936;SDS011;51452;47.698;19.050;2022-09-29T17:21:16;2.00;;;1.42;;
64936;SDS011;51452;47.698;19.050;2022-09-29T17:23:42;3.83;;;1.10;;
64936;SDS011;51452;47.698;19.050;2022-09-29T17:26:22;5.15;;;3.47;;
64936;SDS011;51452;47.698;19.050;2022-09-29T17:29:14;5.90;;;3.25;;
64936;SDS011;51452;47.698;19.050;2022-09-29T17:31:40;7.32;;;3.55;;
64936;SDS011;51452;47.698;19.050;2022-09-29T17:34:05;4.20;;;2.83;;
64936;SDS011;51452;47.698;19.050;2022-09-29T17:36:31;4.90;;;2.00;;
64936;SDS011;51452;47.698;19.050;2022-09-29T17:38:57;6.78;;;2.55;;
64936;SDS011;51452;47.698;19.050;2022-09-29T17:41:22;5.72;;;2.70;;
64936;SDS011;51452;47.698;19.050;2022-09-29T17:43:47;2.88;;;2.00;;
64936;SDS011;51452;47.698;19.050;2022-09-29T17:46:14;2.83;;;1.98;;
64936;SDS011;51452;47.698;19.050;2022-09-29T17:48:39;3.35;;;1.88;;
64936;SDS011;51452;47.698;19.050;2022-09-29T17:51:08;4.93;;;1.85;;
64936;SDS011;51452;47.698;19.050;2022-09-29T17:53:36;2.20;;;1.50;;
64936;SDS011;51452;47.698;19.050;2022-09-29T17:56:02;2.65;;;1.65;;
64936;SDS011;51452;47.698;19.050;2022-09-29T17:58:28;2.63;;;1.63;;
64936;SDS011;51452;47.698;19.050;2022-09-29T18:00:54;3.08;;;1.50;;
64936;SDS011;51452;47.698;19.050;2022-09-29T18:03:21;3.72;;;1.23;;
64936;SDS011;51452;47.698;19.050;2022-09-29T18:05:48;1.60;;;1.00;;
64936;SDS011;51452;47.698;19.050;2022-09-29T18:08:21;1.10;;;0.95;;
64936;SDS011;51452;47.698;19.050;2022-09-29T18:10:48;3.40;;;1.10;;
64936;SDS011;51452;47.698;19.050;2022-09-29T18:13:19;4.35;;;1.13;;
64936;SDS011;51452;47.698;19.050;2022-09-29T18:15:45;1.92;;;0.90;;
64936;SDS011;51452;47.698;19.050;2022-09-29T18:18:15;5.50;;;1.30;;